首页
METAR-TAF:

METAR-TAF

机场 :

波特兰国际喷气机机场

波特蘭, 缅因州, 美国

纬度: 43-38-32N, 经度: 070-18-16W, 海拔: 22米

当前天气观测

该预报发布于38分钟前的01:51 UTC
风速10节,风向
温度 10°C
湿度 50%
气压 1021 hPa
能見度: 16.1公里
天空无云

METAR: KPWM 170151Z 36010KT 10SM CLR 10/00 A3015 RMK AO2 SLP209 T01000000

时间: 22:29 (02:29 UTC)

预报

该预报发布于3小时和9分钟前的23:20 UTC
预报有效从17日的 00点(UTC)到 17日的 24点(UTC)
风速8节,风向北转西北
能見度: 10公里
少量云层高于6000英尺
从 17日的 1800点(UTC)
风速8节,风向
能見度: 10公里
散云层高于25000英尺

TAF: KPWM 162320Z 1700/1724 34008KT P6SM FEW060 FM171800 17008KT P6SM SCT250

超过4000个机场的气象观测和天气预报(METAR&TAF报告)。

可查询的气象台以黄色和红色小点在地图上表示。

将鼠标移到小点上方,可查看气象台名称。

然后点击查看天气观测和预报。

如需切换地图:点击带黑十字的绿色按钮放大地图;点击带横线的绿色按钮缩小地图;或者点击绿色箭头查看邻近地区的地图。


METAR-TAF: